歪歪影视

 找回密码
 立即注册
收藏本版 |订阅

╃新电影 今日: 0|主题: 3086|排名: 1 

作者 回复/查看 最后发表
假小子 The.Assignment.2016.1080p.BluRay.x264.DTS-HD.MA.5.1-FGT 8.96GB  ...23 New YYmov 昨天 19:59 201109 .心境△ 昨天 21:20
撒旦之子 Child.Of.Satan.2017.1080p.BluRay.x264-ROVERS 6.56GB  ...23 New YYmov 前天 22:56 201184 抢红包 昨天 08:26
康复之旅 Loaded.2015.720p.WEB.x264-ASSOCiATE 1.77GB  ...23 New YYmov 前天 22:56 201055 潜江劫持 昨天 08:10
感觉中枢 Sensoria.2015.1080p.BluRay.X264-iNVANDRAREN 5.46GB  ...23 New YYmov 前天 21:58 201063 念旧 昨天 08:49
庇护所 Shelter.2015.720p.WEB.x264-ASSOCiATE 1.8GB  ...23 New YYmov 前天 21:58 201086 俯卧撑 昨天 09:02
The.Northlander.2016.1080p.WEB-DL.DD5.1.H264-FGT 3.64GB  ...23 New YYmov 前天 21:58 201068 卡洛斯 昨天 08:39
The.Axe.Murders.Of.Villisca.2016.1080p.BluRay.x264-ROVERS 5.47GB  ...23 New YYmov 前天 21:58 201038 126 昨天 06:12
辣身舞 Dirty.Dancing.2017.720p.WEB.x264-TBS 3.12GB  ...23 New YYmov 前天 20:59 201119 吃素的蚊子 昨天 02:36
战争机器 War.Machine.2017.1080p.NF.WEBRip.DD5.1.x264-SB 5.43GB  ...23 New YYmov 前天 20:59 201086 中二病 昨天 07:34
王的记事簿 The.Kings.Case.Note.2017.720p.HDRip.H264-CJ.mp4 2.53GB  ...23 New YYmov 前天 20:59 201060 残梦▌ 昨天 04:01
迈凯伦 McLaren.2016.1080p.BluRay.H264.AAC-RARBG 1.81GB  ...23 New YYmov 前天 20:59 201049 明日边缘 昨天 04:47
绝命攻击 Drone.2017.1080p.WEB-DL.DD5.1.H264-FGT 3.05GB  ...23 New YYmov 前天 20:59 201228 倾城 昨天 03:48
Eat.Local.2017.1080p.BluRay.H264.AAC-RARBG 1.79GB  ...23 New YYmov 前天 20:59 201032 艾米丽 昨天 07:05
黑蝴蝶 Black.Butterfly.2017.1080p.WEB-DL.DD5.1.H264-FGT 3.22GB  ...23 New YYmov 前天 20:59 201035 琼瑶式、爱情 昨天 04:59
春季的前三天 Tri_dnya_do vesny_2017_DVDRip_by_Dalemake.avi 1.46GB  ...23 New YYmov 前天 20:59 201036 天气预报 昨天 06:26
柏林综合症 Berlin.Syndrome.2017.1080p.WEB-DL.DD5.1.H264-FGT 4GB  ...23 New YYmov 前天 20:59 201034 浮梦 昨天 07:31
疾速特攻 John.Wick.Chapter.2.2017.1080p.WEB-DL.DD5.1.H264-FGT 4.21GB  ...23 New YYmov 前天 20:59 201045 昵图网 昨天 03:31
一个疯狂的巡航 One.Crazy.Cruise.2015.720p.HDTV.x264-W4F 1.93GB  ...23 New YYmov 前天 20:59 201022 宝马高考生 昨天 03:58
废物之火 Trash.Fire.2016.1080p.BluRay.REMUX.AVC.DTS-HR.5.1-FGT 16.74GB  ...23 New YYmov 前天 20:59 201006 不爱才搞暧昧 昨天 04:52
奇怪的夜晚 Night.of.Something.Strange.2016.1080p.BluRay.REMUX.DTS-HR.5.1-FGT 19.39GB  ...23 New YYmov 前天 20:59 201026 萝莉 昨天 04:12
走出伊拉克 Out.of.Iraq.2016.1080p.WEBRip.AAC2.0.x264-RTN 2.58GB  ...23 New YYmov 前天 20:59 201050 奥斯汀 昨天 06:35
All.Governments.Lie.Truth.Deception.and.the.Spirit.of.I.F.Stone.2016.720p.WEB-DL.DD5.1.H.264-Coo7 2.83GB  ...23 New YYmov 前天 20:59 201011 巴黎爱情桥垮塌 昨天 05:16
终结的感觉 The.Sense.of.an.Ending.2017.720p.WEB-DL.XviD.AC3-FGT 2.86GB  ...23 New YYmov 前天 20:59 201017 双色球 昨天 03:49
志向太空 Fight.for.Space.2016.720p.WEB-DL.DD5.1.H.264-Coo7 2.89GB  ...23 New YYmov 前天 20:59 201032 晋济高速事故 昨天 06:30
生吃 Raw.2016.SUBBED.720p.WEB-DL.XviD.AC3-FGT 2.69GB  ...23 New YYmov 前天 20:59 201081 快播 昨天 06:29
血腥担保2 Bonded.By.Blood.2.2017.1080p.BluRay.H264.AAC-RARBG 1.76GB  ...23 New YYmov 前天 20:59 201032 涨姿势 昨天 06:08
石造住宅杀人案 The Tooth and the Nail 2017 1080p HDRip H264-[ENTER].mp4 2.37GB  ...23 New YYmov 前天 20:59 201049 °pices、 昨天 04:16
赶尽杀绝 Kill.em.All.2017.1080p.BluRay.AVC.DTS-HD.MA.5.1-FGT 25.53GB  ...23 New YYmov 前天 20:59 201024 微信网页版 昨天 05:48
火力支援 Danger.Close.2017.1080p.BluRay.x264-SADPANDA 7.67GB  ...23 New YYmov 6 天前 201455 坎边 6 天前
斯帕尔克:宇宙历险记 Spark.A.Space.Tail.2016.1080p.WEB-DL.DD5.1.H264-FGT 3.13GB  ...23 New YYmov 7 天前 201226 奥利弗 6 天前
下一页 »

快速发帖

还可输入 160 个字符
高级模式
图片
您需要登录后才可以发帖 登录 | 立即注册

本版积分规则

Archiver|手机版|小黑屋|歪歪影视 counter hit xanga

GMT+8, 2017-5-29 13:44 , Processed in 0.035999 second(s), 5 queries , File On.

Powered by 歪歪影音 X3.3

© 2001-2015 YYmov.com

返回顶部 返回版块